You are here

Stations

Station Name Date Time Temperature Relative Humidity Precipitation Wind Speed Wind Direction Create Custom Report Daily Report Hourly Report
A&O Farm 2024-14-07 20:30 80.0 90.40 0.00 1.52 SSE
Aberdeen VTcrn 2024-14-07 20:30 78.7 82.60 0.34 0.00 NNE
Beaumont Exp Stn 2024-14-07 20:30 73.4 97.70 1.87 2.39 S
Bee Lake 2024-14-07 20:30 79.6 86.90 0.00 0.55 SE
Black Belt F24 VTcrn 2024-14-07 20:30 76.4 93.60 0.20 3.56 WNW
Blk Belt F22-23 VTso 2024-14-07 20:30 77.2 92.80 0.06 0.00 WNW
Brooksville 2024-14-07 20:30 76.7 90.40 0.10 3.43 NW
Brooksville2 VTso 2024-14-07 20:30 75.2 97.20 0.36
Brown Loam Exp. Stn. 2024-14-07 20:30 83.0 75.27 0.00 0.93 SSW
Brown Loam VT1crn/so 2024-14-07 20:30 81.0 83.10 0.00 0.00 N
Brown Loam VT2crn/so 2024-14-07 20:30 80.2 87.90 0.00 0.00 NNW
Canton 2024-14-07 20:30 81.0 79.90 0.00 1.52 ENE
Clarksdale VTso 2024-14-07 20:30 81.3 84.10 0.00
Cleveland 2024-14-07 20:30 80.9 88.30 0.00 1.61 SSE
Coastal Res & Ext Cnt 2024-14-07 20:30 83.4 82.10 0.00 1.07 NE
COOP Stoneville 2024-12-07 8:00 80.0 78 0.00
Cooper Farm 2024-14-07 20:30 81.9 87.50 0.00 0.09 SSW
Crystal Sprgs Exp Stn 2024-14-07 20:30 82.6 80.50 0.00 0.95 NW
Dundee 2024-14-07 20:30 83.6 76.52 0.00 1.38 SW
Greenwood 2024-14-07 20:30 82.8 77.43 0.00 0.01 SSW
Holly Bluff 2024-14-07 20:15 84.3 77.19 0.00 0.66 N
Holly Ridge 2024-14-07 20:30 81.9 85.30 0.00 1.29 S
Home Cypress Farm 2024-14-07 20:30 83.2 76.24 0.00 0.93 SE
Lamar 2024-14-07 20:30 79.4 83.10 0.00 0.64 WSW
Lancaster 2024-14-07 20:30 81.8 78.36 0.00 1.48 W
Longwood VTso 2024-14-07 20:30 80.9 90.10 0.00 0.48 SE
Lyon 2024-14-07 20:30 84.9 73.70 0.00 1.42 SSE
Macon VTcrn 2024-14-07 20:30 77.5 94.00 0.00 0.00 NNW
Mantee VT 2024-14-07 20:30 78.2 89.60 0.00 0.02 ESE
Money 2024-14-07 20:30 83.2 81.30 0.00 1.25 SSE
Mound Bayou 2024-14-07 20:30 85.5 72.84 0.00 1.15 SSW
MSU North Farm Starkv 2024-14-07 20:30 77.5 90.10 0.02 2.51 NNW
MSU South Farm Starkv 2024-14-07 20:30 77.0 86.90 0.02 0.92 WNW
Natchez 2024-14-07 20:30 82.0 90.20 0.00 0.90 NNE
Newton 2024-14-07 20:30 75.4 90.50 0.00 0.71 E
Olive Branch VTcr 2024-14-07 20:30 80.1 89.70 0.00 0.13 SE
Olive Branch2 VTso 2024-14-07 20:30 80.9 93.60 0.00
Onward VTcrn 2024-14-07 20:30 85.0 76.72 0.00
Pontotoc AWS COOP 2024-14-07 20:29
Pontotoc Exp Stn 2024-14-07 20:30 76.4 82.20 0.50 1.32 SW
Poplarville 2024-14-07 20:30 76.2 89.70 0.12 6.87 NNE
Port Gibson 2024-14-07 20:30 81.0 86.70 0.00 0.00 E
Prairie 2024-14-07 20:30 79.2 81.40 0.00 1.61 NNW
Senatobia 2024-14-07 20:30 81.0 85.20 0.00 0.17 S
Shurden Farm 2024-14-07 20:00 83.8 83.00 0.00 2.53 WSW
Sidon 2024-14-07 20:30 81.0 80.10 0.00 2.78 SSW
Stnville F7 VTcrn/so 2024-14-07 20:30 83.2 70.49 0.00
Stoneville AWS 2024-14-07 20:30 82.4 75.33 0.00 1.62 SW
Stoneville F10 2024-14-07 20:30 83.4 77.41 0.00 2.29 S
Stoneville F17 VTso 2024-14-07 20:30 81.8 86.70 0.00
Stoneville W 2024-14-07 20:30 81.4 77.06 0.00 2.65 SSW
Stoneville_F8 2024-14-07 20:30 84.0 74.97 0.00 1.68 S
Stoneville_SW 2024-14-07 20:30 85.1 72.90 0.00 3.74 S
Swan Lake VTcn 2024-14-07 20:15 84.3 80.60 0.00 0.28 S
Thighman 2024-14-07 20:30 85.2 72.83 0.00 4.30 ESE
Tippo VTso 2024-14-07 20:30 83.3 80.50 0.00
Tribbett 2024-14-07 20:00 85.8 82.90 0.00 0.70 S
Tunica 2024-14-07 20:30 82.5 83.00 0.00 1.62 SSE
Vaiden 2024-14-07 20:30 77.9 88.60 0.00 0.46 SSW
Verona 2024-14-07 20:30 80.2 78.90 0.14 1.89 NNW
Verona VTcrn/so 2024-14-07 20:30 80.9 73.98 0.00
Vicksburg 2024-14-07 20:30 81.7 90.20 0.00 0.05 N
White Sand 2024-14-07 20:30 80.6 82.60 0.02 2.53 ENE
Back to Top